Time;durP1;ratioP1;P1;durP2;ratioP2;P2;SDS_P1;SDS_P2;PMS_P1;PMS_P2;Temp;Humidity;BMP_temperature;BMP_pressure;BME280_temperature;BME280_humidity;BME280_pressure;Samples;Min_cycle;Max_cycle;Signal;HPM_P1;HPM_P2
2022/08/16 08:33:37;;;;;;;2.60;0.90;;;;;;;;;;1794803;78;30086;-53
2022/08/16 08:36:06;;;;;;;1.35;1.17;;;;;;;;;;1766989;78;20968;-54
2022/08/16 08:38:32;;;;;;;2.08;0.90;;;;;;;;;;1775490;78;22405;-54
2022/08/16 08:40:58;;;;;;;2.95;1.07;;;;;;;;;;1769850;79;21124;-54
2022/08/16 08:43:25;;;;;;;3.22;0.80;;;;;;;;;;1770699;79;21524;-55
2022/08/16 08:45:57;;;;;;;2.47;1.00;;;;;;;;;;1778985;79;21049;-55
2022/08/16 08:48:22;;;;;;;1.92;0.88;;;;;;;;;;1770966;79;21048;-55
2022/08/16 08:50:48;;;;;;;3.83;0.93;;;;;;;;;;1773620;78;21866;-55
2022/08/16 08:53:15;;;;;;;1.57;0.70;;;;;;;;;;1769964;79;21492;-55
2022/08/16 08:55:41;;;;;;;1.07;0.60;;;;;;;;;;1771536;79;21019;-54
2022/08/16 08:58:08;;;;;;;3.92;0.70;;;;;;;;;;1754459;79;21044;-54
2022/08/16 09:00:42;;;;;;;1.72;0.90;;;;;;;;;;1743407;80;21360;-53
2022/08/16 09:03:08;;;;;;;2.45;0.80;;;;;;;;;;1742539;80;21727;-54
2022/08/16 09:05:36;;;;;;;2.50;1.00;;;;;;;;;;1741233;80;21457;-52
2022/08/16 09:08:05;;;;;;;2.95;0.90;;;;;;;;;;1745038;80;21048;-54
2022/08/16 09:10:33;;;;;;;2.72;0.70;;;;;;;;;;1740034;80;21105;-53
2022/08/16 09:12:59;;;;;;;2.87;0.68;;;;;;;;;;1740137;80;21279;-55
2022/08/16 09:15:27;;;;;;;2.10;0.50;;;;;;;;;;1690692;83;21965;-53
2022/08/16 09:17:54;;;;;;;5.50;0.60;;;;;;;;;;1689408;83;21065;-54
2022/08/16 09:20:24;;;;;;;0.80;0.57;;;;;;;;;;1686326;83;21049;-54
2022/08/16 09:22:50;;;;;;;4.90;0.62;;;;;;;;;;1691194;82;21081;-54
2022/08/16 09:25:16;;;;;;;0.98;0.60;;;;;;;;;;1684222;83;21715;-54
2022/08/16 09:27:42;;;;;;;3.77;1.22;;;;;;;;;;1682927;83;21872;-54
2022/08/16 09:30:10;;;;;;;1.12;0.78;;;;;;;;;;1683956;83;27456;-54
2022/08/16 09:32:36;;;;;;;2.45;0.78;;;;;;;;;;1674292;83;21073;-54
2022/08/16 09:35:02;;;;;;;0.80;0.68;;;;;;;;;;1722453;80;21448;-54
2022/08/16 09:37:29;;;;;;;0.93;0.60;;;;;;;;;;1728210;80;21089;-54
2022/08/16 09:39:58;;;;;;;5.15;1.07;;;;;;;;;;1730809;81;21147;-54
2022/08/16 09:42:25;;;;;;;2.08;1.10;;;;;;;;;;1731872;80;21061;-54
2022/08/16 09:44:51;;;;;;;2.98;0.70;;;;;;;;;;1726919;80;21073;-54
2022/08/16 09:47:17;;;;;;;1.92;0.70;;;;;;;;;;1732567;80;21038;-54
2022/08/16 09:49:43;;;;;;;3.12;0.88;;;;;;;;;;1727883;80;27773;-54
2022/08/16 09:52:09;;;;;;;2.70;0.70;;;;;;;;;;1733738;80;22407;-54
2022/08/16 09:54:35;;;;;;;1.17;0.70;;;;;;;;;;1732592;80;21078;-54
2022/08/16 09:57:01;;;;;;;3.22;0.80;;;;;;;;;;1735989;80;21085;-53
2022/08/16 09:59:27;;;;;;;3.67;0.80;;;;;;;;;;1728022;80;21042;-55
2022/08/16 10:01:53;;;;;;;2.40;0.85;;;;;;;;;;1732989;80;21376;-55
2022/08/16 10:04:19;;;;;;;1.70;0.70;;;;;;;;;;1731926;80;22286;-55
2022/08/16 10:06:45;;;;;;;1.30;0.70;;;;;;;;;;1729560;80;21071;-52
2022/08/16 10:09:12;;;;;;;2.42;0.78;;;;;;;;;;1732176;81;21100;-53
2022/08/16 10:14:23;;;;;;;1.20;0.80;;;;;;;;;;1731471;80;21061;-54
2022/08/16 10:16:49;;;;;;;2.55;0.70;;;;;;;;;;1733241;80;21736;-53
2022/08/16 10:19:15;;;;;;;1.40;0.80;;;;;;;;;;1737837;80;21105;-56
2022/08/16 10:21:42;;;;;;;1.87;1.00;;;;;;;;;;1732793;80;21441;-56
2022/08/16 10:24:08;;;;;;;0.90;0.80;;;;;;;;;;1731463;80;29416;-54
2022/08/16 10:26:34;;;;;;;1.30;0.90;;;;;;;;;;1729491;80;21003;-54
2022/08/16 10:29:00;;;;;;;1.27;1.00;;;;;;;;;;1735001;80;21779;-53
2022/08/16 10:31:26;;;;;;;1.20;0.98;;;;;;;;;;1729714;80;21588;-53
2022/08/16 10:33:54;;;;;;;1.52;1.20;;;;;;;;;;1716712;80;21018;-54
2022/08/16 10:36:20;;;;;;;2.92;0.90;;;;;;;;;;1706113;82;21026;-53
2022/08/16 10:38:46;;;;;;;3.15;1.22;;;;;;;;;;1700277;82;21448;-53
2022/08/16 10:41:12;;;;;;;1.60;0.98;;;;;;;;;;1704430;82;21616;-53
2022/08/16 10:43:39;;;;;;;1.30;1.00;;;;;;;;;;1706734;82;21556;-53
2022/08/16 10:46:05;;;;;;;1.80;1.55;;;;;;;;;;1723424;82;20974;-53
2022/08/16 10:48:32;;;;;;;2.52;1.00;;;;;;;;;;1720090;82;21457;-53
2022/08/16 10:50:58;;;;;;;1.72;1.07;;;;;;;;;;1703905;82;21459;-53
2022/08/16 10:53:26;;;;;;;1.30;1.00;;;;;;;;;;1708454;82;22387;-54
2022/08/16 10:55:52;;;;;;;1.55;1.05;;;;;;;;;;1702588;82;21044;-53
2022/08/16 10:58:18;;;;;;;2.50;1.20;;;;;;;;;;1709059;82;21629;-55
2022/08/16 11:00:45;;;;;;;1.55;1.10;;;;;;;;;;1706299;82;21063;-53
2022/08/16 11:03:11;;;;;;;2.65;1.30;;;;;;;;;;1684601;82;21136;-53
2022/08/16 11:05:38;;;;;;;2.02;1.20;;;;;;;;;;1718290;82;22271;-54
2022/08/16 11:08:04;;;;;;;2.10;0.93;;;;;;;;;;1712895;82;21053;-54
2022/08/16 11:10:32;;;;;;;3.58;1.15;;;;;;;;;;1709591;82;21092;-52
2022/08/16 11:12:58;;;;;;;2.62;1.20;;;;;;;;;;1718727;82;21065;-53
2022/08/16 11:15:24;;;;;;;1.95;1.40;;;;;;;;;;1708585;82;27410;-54
2022/08/16 11:17:50;;;;;;;1.10;1.00;;;;;;;;;;1714437;82;21845;-53
2022/08/16 11:20:18;;;;;;;3.27;1.35;;;;;;;;;;1704880;82;21134;-54
2022/08/16 11:22:45;;;;;;;2.45;1.57;;;;;;;;;;1704859;82;21036;-53
2022/08/16 11:25:11;;;;;;;3.45;1.60;;;;;;;;;;1708796;82;21105;-54
2022/08/16 11:27:37;;;;;;;5.67;1.47;;;;;;;;;;1709203;82;21044;-54
2022/08/16 11:30:04;;;;;;;2.42;1.20;;;;;;;;;;1711055;82;21814;-53
2022/08/16 11:32:30;;;;;;;1.82;1.30;;;;;;;;;;1711400;81;21124;-54
2022/08/16 11:34:56;;;;;;;3.33;1.42;;;;;;;;;;1725938;80;26152;-53
2022/08/16 11:37:22;;;;;;;3.37;1.25;;;;;;;;;;1728424;80;21089;-54
2022/08/16 11:39:49;;;;;;;1.55;1.27;;;;;;;;;;1731458;80;21097;-54
2022/08/16 11:42:14;;;;;;;2.22;1.45;;;;;;;;;;1726463;80;21749;-53
2022/08/16 11:44:40;;;;;;;1.20;1.00;;;;;;;;;;1735211;81;27938;-53
2022/08/16 11:47:07;;;;;;;3.05;1.37;;;;;;;;;;1727914;80;21049;-54
2022/08/16 11:49:33;;;;;;;1.50;1.25;;;;;;;;;;1728469;80;21075;-54
2022/08/16 11:52:00;;;;;;;1.80;1.65;;;;;;;;;;1736457;80;21069;-54
2022/08/16 11:54:26;;;;;;;3.15;1.40;;;;;;;;;;1729223;80;21770;-54
2022/08/16 11:56:53;;;;;;;1.55;1.20;;;;;;;;;;1727599;80;21121;-54
2022/08/16 11:59:20;;;;;;;1.55;1.10;;;;;;;;;;1736720;80;21050;-54
2022/08/16 12:01:46;;;;;;;1.85;1.30;;;;;;;;;;1740321;80;21038;-55
2022/08/16 12:04:12;;;;;;;2.08;1.07;;;;;;;;;;1735347;80;21042;-54
2022/08/16 12:06:38;;;;;;;2.87;1.30;;;;;;;;;;1737227;81;21147;-53
2022/08/16 12:09:04;;;;;;;2.30;1.00;;;;;;;;;;1734589;80;21074;-54
2022/08/16 12:11:30;;;;;;;2.35;1.45;;;;;;;;;;1680339;83;21048;-54
2022/08/16 12:13:56;;;;;;;2.98;1.37;;;;;;;;;;1681402;83;28139;-54
2022/08/16 12:16:23;;;;;;;1.95;1.32;;;;;;;;;;1731633;80;20954;-54
2022/08/16 12:18:49;;;;;;;3.47;1.75;;;;;;;;;;1730770;80;21462;-54
2022/08/16 12:21:15;;;;;;;6.78;1.57;;;;;;;;;;1735394;80;27705;-52
2022/08/16 12:23:42;;;;;;;3.58;1.40;;;;;;;;;;1733913;82;21391;-53
2022/08/16 12:26:08;;;;;;;2.45;1.12;;;;;;;;;;1730014;80;21042;-54
2022/08/16 12:28:34;;;;;;;6.15;1.50;;;;;;;;;;1732284;80;21066;-54
2022/08/16 12:31:00;;;;;;;3.75;1.37;;;;;;;;;;1731987;80;21093;-54
2022/08/16 12:33:26;;;;;;;2.20;1.72;;;;;;;;;;1735403;80;26536;-53
2022/08/16 12:35:52;;;;;;;4.40;2.33;;;;;;;;;;1750094;80;21053;-54
2022/08/16 12:38:18;;;;;;;9.28;2.77;;;;;;;;;;1743183;81;28133;-54
2022/08/16 12:40:45;;;;;;;3.87;2.17;;;;;;;;;;1746122;80;21051;-55
2022/08/16 12:43:12;;;;;;;5.78;1.87;;;;;;;;;;1740339;80;21511;-54
2022/08/16 12:45:40;;;;;;;3.02;2.72;;;;;;;;;;1712352;82;21385;-54
2022/08/16 12:50:51;;;;;;;5.15;2.45;;;;;;;;;;1695197;82;21101;-53
2022/08/16 12:53:19;;;;;;;5.22;2.62;;;;;;;;;;1694728;82;21078;-53
2022/08/16 12:55:45;;;;;;;5.22;2.42;;;;;;;;;;1701228;82;21040;-54
2022/08/16 12:58:12;;;;;;;4.75;2.42;;;;;;;;;;1695166;82;21628;-54
2022/08/16 13:00:38;;;;;;;6.85;2.72;;;;;;;;;;1696216;82;21115;-54
2022/08/16 13:03:05;;;;;;;4.83;2.22;;;;;;;;;;1676964;83;21158;-54
2022/08/16 13:05:35;;;;;;;4.15;2.52;;;;;;;;;;1679061;83;21565;-54
2022/08/16 13:07:59;;;;;;;4.12;2.98;;;;;;;;;;1711810;82;21109;-54
2022/08/16 13:10:28;;;;;;;5.85;2.80;;;;;;;;;;1711731;82;21065;-53
2022/08/16 13:12:54;;;;;;;8.25;2.87;;;;;;;;;;1713486;82;21137;-54
2022/08/16 13:15:24;;;;;;;3.60;3.02;;;;;;;;;;1679082;83;20923;-54
2022/08/16 13:17:50;;;;;;;7.83;2.17;;;;;;;;;;1710273;82;21007;-54
2022/08/16 13:20:17;;;;;;;6.17;3.35;;;;;;;;;;1674410;83;21078;-55
2022/08/16 13:22:45;;;;;;;3.60;2.60;;;;;;;;;;1710631;83;21886;-54
2022/08/16 13:25:12;;;;;;;3.80;2.22;;;;;;;;;;1675932;83;20978;-56
2022/08/16 13:27:38;;;;;;;4.22;2.27;;;;;;;;;;1681644;83;21133;-55
2022/08/16 13:30:04;;;;;;;5.17;3.12;;;;;;;;;;1701466;82;20947;-54
2022/08/16 13:32:30;;;;;;;5.12;2.40;;;;;;;;;;1703616;82;21382;-54
2022/08/16 13:34:56;;;;;;;3.87;2.60;;;;;;;;;;1678337;82;26598;-54
2022/08/16 13:37:22;;;;;;;4.40;1.92;;;;;;;;;;1719642;81;25047;-54
2022/08/16 13:39:48;;;;;;;3.98;2.92;;;;;;;;;;1719257;81;21112;-54
2022/08/16 13:42:15;;;;;;;6.62;3.05;;;;;;;;;;1723597;81;21036;-54
2022/08/16 13:44:41;;;;;;;2.62;2.40;;;;;;;;;;1720775;81;21017;-54
2022/08/16 13:47:07;;;;;;;6.03;2.83;;;;;;;;;;1715766;81;26590;-55
2022/08/16 13:49:33;;;;;;;3.15;2.25;;;;;;;;;;1719652;81;20993;-54
2022/08/16 13:52:02;;;;;;;6.40;2.62;;;;;;;;;;1728191;81;20949;-54
2022/08/16 13:54:28;;;;;;;2.50;2.30;;;;;;;;;;1718065;81;20973;-53
2022/08/16 13:56:54;;;;;;;5.60;2.20;;;;;;;;;;1721939;81;21348;-54
2022/08/16 13:59:20;;;;;;;2.98;2.33;;;;;;;;;;1720768;81;26694;-54
2022/08/16 14:01:47;;;;;;;6.28;2.60;;;;;;;;;;1720738;81;22250;-54
2022/08/16 14:04:13;;;;;;;7.22;2.45;;;;;;;;;;1716567;81;21138;-55
2022/08/16 14:06:39;;;;;;;9.03;2.40;;;;;;;;;;1720902;81;21089;-54
2022/08/16 14:09:05;;;;;;;4.22;1.95;;;;;;;;;;1718767;81;21780;-54
2022/08/16 14:11:32;;;;;;;3.50;1.92;;;;;;;;;;1713408;81;21080;-54
2022/08/16 14:13:58;;;;;;;5.42;2.08;;;;;;;;;;1718168;81;21484;-53
2022/08/16 14:16:24;;;;;;;1.75;1.42;;;;;;;;;;1717677;81;21085;-54
2022/08/16 14:18:51;;;;;;;4.62;1.72;;;;;;;;;;1714522;81;21562;-54
2022/08/16 14:21:17;;;;;;;5.72;1.82;;;;;;;;;;1715083;81;21679;-54
2022/08/16 14:23:43;;;;;;;2.70;1.37;;;;;;;;;;1707001;81;21580;-55
2022/08/16 14:26:09;;;;;;;2.80;1.77;;;;;;;;;;1718600;81;21029;-54
2022/08/16 14:28:35;;;;;;;1.90;1.65;;;;;;;;;;1717262;81;21044;-55
2022/08/16 14:31:01;;;;;;;1.70;1.50;;;;;;;;;;1682094;83;20998;-53
2022/08/16 14:33:28;;;;;;;3.85;1.40;;;;;;;;;;1711679;81;21832;-55
2022/08/16 14:35:54;;;;;;;4.15;1.32;;;;;;;;;;1713627;82;21141;-55
2022/08/16 14:38:20;;;;;;;4.25;1.10;;;;;;;;;;1672811;83;21117;-54
2022/08/16 14:40:46;;;;;;;1.65;1.50;;;;;;;;;;1708238;82;21136;-54
2022/08/16 14:43:12;;;;;;;2.45;1.35;;;;;;;;;;1709209;82;21099;-54
2022/08/16 14:45:38;;;;;;;1.85;1.20;;;;;;;;;;1704095;82;22449;-54
2022/08/16 14:48:04;;;;;;;4.95;1.07;;;;;;;;;;1706401;82;27551;-55
2022/08/16 14:50:32;;;;;;;3.15;1.40;;;;;;;;;;1702757;82;21046;-54
2022/08/16 14:52:59;;;;;;;2.20;1.37;;;;;;;;;;1706173;82;21084;-53
2022/08/16 14:55:26;;;;;;;2.08;1.85;;;;;;;;;;1704506;82;21527;-54
2022/08/16 14:57:52;;;;;;;3.17;1.35;;;;;;;;;;1704572;82;21417;-54
2022/08/16 15:00:18;;;;;;;3.77;1.75;;;;;;;;;;1703689;82;21671;-54
2022/08/16 15:02:46;;;;;;;1.85;1.52;;;;;;;;;;1672236;83;25657;-54
2022/08/16 15:05:14;;;;;;;2.52;1.75;;;;;;;;;;1656865;84;21141;-54
2022/08/16 15:07:40;;;;;;;3.12;1.70;;;;;;;;;;1660442;84;21488;-53
2022/08/16 15:10:07;;;;;;;5.45;2.22;;;;;;;;;;1658081;85;22245;-54
2022/08/16 15:12:33;;;;;;;2.42;2.22;;;;;;;;;;1658622;84;21755;-54
2022/08/16 15:14:59;;;;;;;3.52;2.42;;;;;;;;;;1673552;83;21113;-54
2022/08/16 15:17:26;;;;;;;3.30;1.70;;;;;;;;;;1676815;83;21552;-55
2022/08/16 15:19:53;;;;;;;3.92;2.42;;;;;;;;;;1708526;82;21090;-54
2022/08/16 15:22:28;;;;;;;2.60;2.40;;;;;;;;;;1710609;82;22002;-54
2022/08/16 15:24:57;;;;;;;4.47;2.37;;;;;;;;;;1709500;82;21068;-55
2022/08/16 15:27:27;;;;;;;3.65;2.47;;;;;;;;;;1708069;82;21045;-54
2022/08/16 15:29:53;;;;;;;4.40;3.67;;;;;;;;;;1705981;82;21089;-55
2022/08/16 15:32:20;;;;;;;3.22;2.55;;;;;;;;;;1711540;82;21502;-53
2022/08/16 15:34:47;;;;;;;3.83;2.58;;;;;;;;;;1711642;81;21342;-53
2022/08/16 15:37:13;;;;;;;5.42;2.33;;;;;;;;;;1711407;82;21088;-55
2022/08/16 15:39:39;;;;;;;3.77;2.58;;;;;;;;;;1708459;82;21093;-53
2022/08/16 15:42:07;;;;;;;4.33;2.25;;;;;;;;;;1713566;82;27145;-56
2022/08/16 15:44:36;;;;;;;5.45;2.42;;;;;;;;;;1710895;82;21061;-53
2022/08/16 15:47:04;;;;;;;4.90;2.67;;;;;;;;;;1703389;82;22241;-52
2022/08/16 15:49:31;;;;;;;5.53;1.92;;;;;;;;;;1712171;82;21098;-54
2022/08/16 15:51:58;;;;;;;2.72;2.05;;;;;;;;;;1705822;82;21133;-54
2022/08/16 15:54:24;;;;;;;2.72;1.67;;;;;;;;;;1712469;82;21052;-56
2022/08/16 15:56:53;;;;;;;3.85;1.37;;;;;;;;;;1704041;82;21048;-55
2022/08/16 15:59:17;;;;;;;4.83;1.45;;;;;;;;;;1709594;82;21916;-54
2022/08/16 16:01:43;;;;;;;3.22;1.45;;;;;;;;;;1704800;82;27343;-55
2022/08/16 16:04:13;;;;;;;4.10;1.20;;;;;;;;;;1703715;82;25058;-54
2022/08/16 16:06:38;;;;;;;4.30;1.85;;;;;;;;;;1709006;82;20972;-52
2022/08/16 16:09:04;;;;;;;3.70;1.55;;;;;;;;;;1697396;82;21081;-53
2022/08/16 16:11:31;;;;;;;2.75;2.30;;;;;;;;;;1706240;82;21126;-53
2022/08/16 16:13:57;;;;;;;3.30;1.22;;;;;;;;;;1712543;82;21559;-55
2022/08/16 16:16:23;;;;;;;3.80;2.50;;;;;;;;;;1704740;82;21017;-53
2022/08/16 16:18:49;;;;;;;1.92;1.72;;;;;;;;;;1707874;82;21315;-55
2022/08/16 16:21:16;;;;;;;2.75;1.85;;;;;;;;;;1706236;82;20932;-54
2022/08/16 16:23:46;;;;;;;2.00;1.65;;;;;;;;;;1714303;82;21616;-54
2022/08/16 16:26:13;;;;;;;3.65;1.60;;;;;;;;;;1707256;82;20905;-55
2022/08/16 16:28:39;;;;;;;3.40;1.70;;;;;;;;;;1710116;82;20906;-54
2022/08/16 16:31:06;;;;;;;2.45;1.60;;;;;;;;;;1713744;82;21394;-54
2022/08/16 16:33:37;;;;;;;3.62;1.70;;;;;;;;;;1706927;82;21699;-54
2022/08/16 16:36:03;;;;;;;4.22;1.65;;;;;;;;;;1705816;82;21033;-53
2022/08/16 16:38:29;;;;;;;5.45;1.72;;;;;;;;;;1705842;82;20922;-54
2022/08/16 16:40:56;;;;;;;3.55;1.60;;;;;;;;;;1710505;82;20871;-55
2022/08/16 16:43:22;;;;;;;6.78;3.25;;;;;;;;;;1708637;82;20910;-55
2022/08/16 16:45:49;;;;;;;3.27;2.22;;;;;;;;;;1670531;83;20923;-54
2022/08/16 16:48:17;;;;;;;5.10;2.12;;;;;;;;;;1674213;83;21180;-54
2022/08/16 16:50:43;;;;;;;4.97;2.15;;;;;;;;;;1706241;82;21087;-54
2022/08/16 16:53:09;;;;;;;2.83;2.12;;;;;;;;;;1708480;82;21052;-54
2022/08/16 16:55:37;;;;;;;2.25;1.70;;;;;;;;;;1708207;82;21472;-54
2022/08/16 17:00:52;;;;;;;5.83;1.92;;;;;;;;;;1704225;82;21080;-55
2022/08/16 17:03:18;;;;;;;5.33;1.75;;;;;;;;;;1707311;82;21093;-54
2022/08/16 17:05:46;;;;;;;7.42;2.58;;;;;;;;;;1704432;82;21100;-54
2022/08/16 17:08:12;;;;;;;3.92;1.70;;;;;;;;;;1696767;82;21045;-53
2022/08/16 17:10:38;;;;;;;10.35;1.70;;;;;;;;;;1702518;82;21505;-54
2022/08/16 17:13:04;;;;;;;2.58;1.40;;;;;;;;;;1703063;82;22455;-54
2022/08/16 17:15:31;;;;;;;4.75;1.50;;;;;;;;;;1710912;82;21120;-54
2022/08/16 17:17:57;;;;;;;7.50;2.02;;;;;;;;;;1708544;82;21096;-53
2022/08/16 17:20:25;;;;;;;3.08;1.57;;;;;;;;;;1714852;82;21049;-53
2022/08/16 17:22:52;;;;;;;2.25;1.30;;;;;;;;;;1704924;82;21052;-53
2022/08/16 17:25:19;;;;;;;2.87;1.40;;;;;;;;;;1708568;82;21708;-54
2022/08/16 17:27:47;;;;;;;2.65;1.40;;;;;;;;;;1711692;82;21590;-54
2022/08/16 17:30:14;;;;;;;3.58;2.27;;;;;;;;;;1706490;82;22279;-54
2022/08/16 17:32:40;;;;;;;3.17;2.22;;;;;;;;;;1705848;82;21378;-54
2022/08/16 17:35:08;;;;;;;3.30;1.35;;;;;;;;;;1711184;80;21030;-53
2022/08/16 17:37:37;;;;;;;4.78;1.60;;;;;;;;;;1729446;80;22205;-54
2022/08/16 17:40:03;;;;;;;3.22;2.00;;;;;;;;;;1733878;80;21109;-54
2022/08/16 17:42:29;;;;;;;4.53;1.62;;;;;;;;;;1732092;80;21726;-53
2022/08/16 17:44:55;;;;;;;4.67;1.67;;;;;;;;;;1732765;80;28648;-54
2022/08/16 17:47:21;;;;;;;5.45;2.12;;;;;;;;;;1734937;80;27366;-56
2022/08/16 17:49:47;;;;;;;4.33;2.10;;;;;;;;;;1736153;80;21535;-53
2022/08/16 17:52:14;;;;;;;3.47;1.57;;;;;;;;;;1676166;83;21042;-53
2022/08/16 17:54:40;;;;;;;7.03;2.08;;;;;;;;;;1727821;80;21027;-54
2022/08/16 17:57:06;;;;;;;9.08;2.77;;;;;;;;;;1731050;80;21568;-54
2022/08/16 17:59:32;;;;;;;5.15;2.33;;;;;;;;;;1734324;80;21712;-54
2022/08/16 18:01:58;;;;;;;4.58;2.40;;;;;;;;;;1735287;80;21647;-53
2022/08/16 18:04:25;;;;;;;5.10;1.90;;;;;;;;;;1730172;80;21129;-54
2022/08/16 18:06:53;;;;;;;9.15;2.75;;;;;;;;;;1675810;83;21057;-54
2022/08/16 18:09:19;;;;;;;4.85;1.95;;;;;;;;;;1735851;80;21002;-55
2022/08/16 18:11:45;;;;;;;4.47;2.42;;;;;;;;;;1730196;80;21046;-54
2022/08/16 18:14:12;;;;;;;6.25;1.80;;;;;;;;;;1731010;80;21186;-55
2022/08/16 18:16:39;;;;;;;5.65;2.02;;;;;;;;;;1729651;80;21090;-54
2022/08/16 18:19:05;;;;;;;4.17;2.83;;;;;;;;;;1731177;80;21472;-54
2022/08/16 18:24:17;;;;;;;4.83;2.47;;;;;;;;;;1726222;80;21051;-54
2022/08/16 18:26:43;;;;;;;2.85;1.62;;;;;;;;;;1731520;80;21070;-54
2022/08/16 18:29:10;;;;;;;9.30;2.35;;;;;;;;;;1733286;80;21117;-55
2022/08/16 18:31:36;;;;;;;4.65;2.27;;;;;;;;;;1732833;80;21582;-54
2022/08/16 18:34:02;;;;;;;7.47;2.90;;;;;;;;;;1727671;80;21007;-55
2022/08/16 18:36:29;;;;;;;6.60;2.35;;;;;;;;;;1736381;80;21073;-54
2022/08/16 18:38:55;;;;;;;5.87;2.05;;;;;;;;;;1740997;80;21130;-54
2022/08/16 18:41:22;;;;;;;2.80;2.05;;;;;;;;;;1741101;80;21057;-54
2022/08/16 18:43:48;;;;;;;3.72;2.17;;;;;;;;;;1745681;80;21055;-54
2022/08/16 18:46:14;;;;;;;4.25;2.45;;;;;;;;;;1747254;80;21053;-54
2022/08/16 18:48:40;;;;;;;4.83;2.30;;;;;;;;;;1706348;82;21046;-54
2022/08/16 18:51:06;;;;;;;2.62;2.05;;;;;;;;;;1702863;82;21706;-54
2022/08/16 18:53:32;;;;;;;2.98;1.67;;;;;;;;;;1707016;82;21079;-54
2022/08/16 18:55:59;;;;;;;5.58;2.15;;;;;;;;;;1697282;82;21057;-54
2022/08/16 18:58:26;;;;;;;4.17;1.65;;;;;;;;;;1686682;83;21057;-55
2022/08/16 19:00:52;;;;;;;6.55;2.52;;;;;;;;;;1693887;82;21083;-54
2022/08/16 19:03:22;;;;;;;5.40;2.50;;;;;;;;;;1702797;82;21596;-53
2022/08/16 19:05:50;;;;;;;5.53;2.72;;;;;;;;;;1706381;82;21455;-55
2022/08/16 19:08:18;;;;;;;3.60;3.08;;;;;;;;;;1674698;84;21083;-54
2022/08/16 19:10:44;;;;;;;5.53;2.85;;;;;;;;;;1705985;82;21038;-54
2022/08/16 19:13:10;;;;;;;5.17;2.72;;;;;;;;;;1704829;82;26519;-54
2022/08/16 19:15:37;;;;;;;6.80;3.60;;;;;;;;;;1706629;82;21105;-53
2022/08/16 19:18:03;;;;;;;4.83;2.65;;;;;;;;;;1694539;82;21158;-54
2022/08/16 19:20:29;;;;;;;3.40;2.85;;;;;;;;;;1705585;82;24984;-54
2022/08/16 19:22:55;;;;;;;3.20;2.90;;;;;;;;;;1678209;83;21058;-54
2022/08/16 19:25:22;;;;;;;5.08;2.37;;;;;;;;;;1661696;84;21117;-54
2022/08/16 19:27:48;;;;;;;9.03;3.02;;;;;;;;;;1680483;83;21133;-54
2022/08/16 19:30:14;;;;;;;4.25;2.52;;;;;;;;;;1682133;83;21000;-54
2022/08/16 19:32:40;;;;;;;3.75;2.95;;;;;;;;;;1694008;82;20907;-54
2022/08/16 19:35:07;;;;;;;4.75;4.20;;;;;;;;;;1680144;83;21491;-54
2022/08/16 19:37:33;;;;;;;4.03;3.00;;;;;;;;;;1679979;83;21507;-53
2022/08/16 19:39:59;;;;;;;7.67;3.45;;;;;;;;;;1738503;80;22195;-54
2022/08/16 19:42:25;;;;;;;3.60;2.90;;;;;;;;;;1736692;80;21480;-54
2022/08/16 19:44:52;;;;;;;5.35;2.98;;;;;;;;;;1737139;80;21399;-54
2022/08/16 19:47:18;;;;;;;5.22;2.27;;;;;;;;;;1735837;80;20983;-54
2022/08/16 19:49:44;;;;;;;6.22;2.80;;;;;;;;;;1742533;80;26268;-54
2022/08/16 19:52:19;;;;;;;4.33;2.58;;;;;;;;;;1735557;80;21352;-53
2022/08/16 19:54:46;;;;;;;4.80;2.70;;;;;;;;;;1732549;80;21007;-54
2022/08/16 19:57:12;;;;;;;4.28;2.45;;;;;;;;;;1734041;80;21053;-52
2022/08/16 19:59:40;;;;;;;5.87;3.15;;;;;;;;;;1738745;80;20971;-53
2022/08/16 20:02:07;;;;;;;6.00;3.00;;;;;;;;;;1739960;80;21382;-54
2022/08/16 20:04:33;;;;;;;3.25;2.20;;;;;;;;;;1734985;80;21493;-53
2022/08/16 20:07:00;;;;;;;7.58;3.02;;;;;;;;;;1740816;80;21091;-54
2022/08/16 20:09:27;;;;;;;7.30;2.65;;;;;;;;;;1735771;80;21068;-54
2022/08/16 20:11:53;;;;;;;7.08;2.83;;;;;;;;;;1742126;80;28233;-54
2022/08/16 20:14:19;;;;;;;5.72;3.08;;;;;;;;;;1737647;80;21082;-54
2022/08/16 20:16:45;;;;;;;8.25;2.40;;;;;;;;;;1740419;81;21163;-54
2022/08/16 20:19:11;;;;;;;6.20;2.70;;;;;;;;;;1738413;80;21041;-54
2022/08/16 20:21:37;;;;;;;5.03;1.87;;;;;;;;;;1735918;80;25084;-54
2022/08/16 20:24:03;;;;;;;4.97;2.02;;;;;;;;;;1735373;80;29306;-53
2022/08/16 20:26:29;;;;;;;4.92;2.27;;;;;;;;;;1740620;80;21509;-54
2022/08/16 20:28:56;;;;;;;5.87;2.60;;;;;;;;;;1741623;80;21732;-54
2022/08/16 20:31:22;;;;;;;2.65;2.17;;;;;;;;;;1738436;80;21473;-53
2022/08/16 20:33:48;;;;;;;5.85;2.33;;;;;;;;;;1735665;80;21122;-54
2022/08/16 20:36:14;;;;;;;2.33;2.12;;;;;;;;;;1734017;80;21103;-53
2022/08/16 20:38:44;;;;;;;6.50;2.33;;;;;;;;;;1726862;80;21067;-54
2022/08/16 20:41:08;;;;;;;6.37;2.72;;;;;;;;;;1734692;80;21823;-54
2022/08/16 20:43:34;;;;;;;6.12;2.58;;;;;;;;;;1735096;80;21649;-53
2022/08/16 20:46:00;;;;;;;9.68;2.83;;;;;;;;;;1730952;80;25554;-53
2022/08/16 20:50:33;;;;;;;3.25;2.12;;;;;;;20.37;100.00;99090.96;1761553;79;28547;-53
2022/08/16 20:53:00;;;;;;;4.70;2.33;;;;;;;20.31;100.00;99097.88;1734320;80;21120;-53
2022/08/16 20:55:27;;;;;;;3.37;1.80;;;;;;;20.30;100.00;99090.68;1737103;80;21342;-55
2022/08/16 20:57:54;;;;;;;7.72;2.08;;;;;;;20.30;100.00;99083.84;1726556;80;21013;-54
2022/08/16 21:00:20;;;;;;;3.02;1.90;;;;;;;20.32;100.00;99091.91;1712345;82;20978;-53
2022/08/16 21:02:47;;;;;;;5.47;1.98;;;;;;;20.28;100.00;99077.66;1713281;82;21053;-53
2022/08/16 21:05:21;;;;;;;3.83;2.65;;;;;;;20.27;100.00;99077.30;1710673;82;21479;-53
2022/08/16 21:07:49;;;;;;;4.85;1.92;;;;;;;20.25;100.00;99080.69;1705019;82;21092;-53
2022/08/16 21:10:20;;;;;;;4.47;2.50;;;;;;;20.24;100.00;99087.70;1712502;82;20980;-53
2022/08/16 21:12:53;;;;;;;4.58;2.08;;;;;;;20.20;100.00;99080.30;1708616;82;21016;-54
2022/08/16 21:15:20;;;;;;;4.33;1.82;;;;;;;20.17;100.00;99084.69;1675974;83;21362;-53
2022/08/16 21:17:47;;;;;;;4.50;1.42;;;;;;;20.16;100.00;99091.69;1667803;84;21081;-54
2022/08/16 21:20:14;;;;;;;5.92;1.60;;;;;;;20.16;100.00;99088.42;1668328;84;21397;-54
2022/08/16 21:22:41;;;;;;;4.28;1.42;;;;;;;20.16;100.00;99088.42;1663119;84;21054;-53
2022/08/16 21:25:10;;;;;;;4.92;1.95;;;;;;;20.15;100.00;99091.33;1670525;83;21088;-54
2022/08/16 21:27:38;;;;;;;7.62;1.40;;;;;;;20.16;100.00;99088.95;1665699;84;21392;-54
2022/08/16 21:30:06;;;;;;;3.60;1.42;;;;;;;20.14;100.00;99076.81;1670041;83;21044;-54
2022/08/16 21:32:33;;;;;;;4.33;1.60;;;;;;;20.14;100.00;99088.23;1663713;84;21125;-54
2022/08/16 21:35:10;;;;;;;9.00;2.02;;;;;;;20.15;100.00;99080.41;1665426;84;21023;-53
2022/08/16 21:37:37;;;;;;;5.78;1.70;;;;;;;20.15;100.00;99081.27;1661900;84;21071;-54
2022/08/16 21:40:06;;;;;;;5.12;1.90;;;;;;;20.17;100.00;99082.45;1660624;84;21099;-53
2022/08/16 21:42:34;;;;;;;3.47;1.32;;;;;;;20.17;100.00;99075.12;1662196;84;21111;-54
2022/08/16 21:45:00;;;;;;;2.40;1.35;;;;;;;20.15;100.00;99073.07;1660110;84;21156;-53
2022/08/16 21:47:26;;;;;;;8.40;2.12;;;;;;;20.14;100.00;99076.81;1662082;84;21074;-54
2022/08/16 21:49:53;;;;;;;2.58;1.47;;;;;;;20.13;100.00;99076.45;1649057;84;21068;-53
2022/08/16 21:52:24;;;;;;;4.08;1.67;;;;;;;20.12;100.00;99082.92;1643358;85;21161;-54
2022/08/16 21:54:51;;;;;;;5.17;1.90;;;;;;;20.09;100.00;99083.20;1694675;82;20978;-54
2022/08/16 21:57:21;;;;;;;6.35;1.65;;;;;;;20.07;100.00;99083.89;1694135;82;21874;-53
2022/08/16 21:59:50;;;;;;;5.55;1.55;;;;;;;20.05;100.00;99083.17;1698873;82;21043;-54
2022/08/16 22:02:19;;;;;;;4.17;1.52;;;;;;;20.02;100.00;99085.69;1700818;82;21109;-54
2022/08/16 22:04:46;;;;;;;4.35;1.57;;;;;;;19.99;100.00;99083.75;1699570;83;21107;-53
2022/08/16 22:07:14;;;;;;;4.42;1.42;;;;;;;19.96;100.00;99084.93;1695666;82;21039;-54
2022/08/16 22:09:42;;;;;;;3.45;1.40;;;;;;;19.93;100.00;99085.22;1696701;82;21268;-54
2022/08/16 22:12:22;;;;;;;6.70;1.37;;;;;;;19.89;100.00;99081.08;1694974;82;21649;-53
2022/08/16 22:14:48;;;;;;;2.27;1.20;;;;;;;19.87;100.00;99082.23;1697095;82;21096;-53
2022/08/16 22:17:15;;;;;;;4.12;1.30;;;;;;;19.84;100.00;99084.74;1694599;82;21061;-52
2022/08/16 22:19:42;;;;;;;11.88;2.27;;;;;;;19.83;100.00;99087.61;1692649;82;21587;-54
2022/08/16 22:22:08;;;;;;;4.03;1.30;;;;;;;19.79;100.00;99087.07;1700032;82;21565;-53
2022/08/16 22:24:35;;;;;;;6.78;1.50;;;;;;;19.76;100.00;99090.59;1695821;82;21146;-53
2022/08/16 22:27:01;;;;;;;5.95;1.20;;;;;;;19.74;100.00;99088.00;1662054;84;21081;-53
2022/08/16 22:29:28;;;;;;;6.87;1.37;;;;;;;19.71;100.00;99088.81;1658463;84;21195;-53
2022/08/16 22:31:54;;;;;;;5.12;1.52;;;;;;;19.67;100.00;99087.37;1659880;84;21134;-54
2022/08/16 22:34:21;;;;;;;4.03;1.20;;;;;;;19.63;100.00;99083.59;1653330;84;21089;-53
2022/08/16 22:36:49;;;;;;;5.80;1.37;;;;;;;19.60;100.00;99083.02;1697827;82;21601;-53
2022/08/16 22:39:16;;;;;;;2.42;1.10;;;;;;;19.57;100.00;99090.12;1697790;82;21054;-53
2022/08/16 22:41:44;;;;;;;7.05;1.37;;;;;;;19.53;100.00;99085.98;1699508;82;20996;-53
2022/08/16 22:44:11;;;;;;;9.15;1.10;;;;;;;19.50;100.00;99089.85;1699639;82;21035;-53
2022/08/16 22:46:38;;;;;;;5.22;1.37;;;;;;;19.49;100.00;99085.40;1699007;82;21263;-53
2022/08/16 22:49:05;;;;;;;2.95;1.10;;;;;;;19.45;100.00;99077.13;1697199;82;21733;-55
2022/08/16 22:51:31;;;;;;;2.87;1.30;;;;;;;19.42;100.00;99082.88;1698555;82;20885;-53